Pagrindinis puslapis
METAR-TAF:

METAR-TAF

Oro uostai :

Vientianas, Laosas

platuma: 17-57N, ilguma: 102-34E, Aukštis: 171 m

Dabartinis oras

Ataskaita buvo paskelbta 28 minutes, ne 05:00 UTC
Vėjas 6 kt iš Šiaurės/Šiaurės Vakarų
Temperatūra 25°C
Drėgmė 44%
Slėgis 1018 hPa
Matomumas: 7000 m
Mažai debesys ne aukštis 2000 ft

METAR: VLVT 050500Z 34006KT 7000 FEW020 25/12 Q1018 NOSIG

Laikas: 12:28 (05:28 UTC)

Prognozė

Ataskaita buvo paskelbta 6 valandos ir 28 minutes, ne 23:00 UTC
Prognozė galioja nuo 05 metu 00 UTC su 05 metu 24 UTC
Vėjas 6 kt iš Šiaurės Rytų
Matomumas: 8000 m
Mažai debesys ne aukštis 2000 ft
Išsisklaidę debesys ne aukštis 20000 ft

TAF: VLVT 042300Z 0500/0524 04006KT 8000 FEW020 SCT200

Orai ataskaitas ir orų prognozės (METAR, TAF).

turimą stotys yra geltonos ir raudonos taškus žemėlapyje.

Perkelti pele per norėdami pamatyti stoties vardą.

Tada spustelėkite, norėdami matyti oro stebėjimo ir prognozės.

Norėdami pakeisti žemėlapį: spustelėkite ant žalios mygtukų su juodo kryžiaus žemyn,; žalią mygtuką su brūkšneliu, jei norite nutolinti; arba žalių rodyklių gretimoms žemėlapius.


METAR-TAF: